Time;durP1;ratioP1;P1;durP2;ratioP2;P2;SDS_P1;SDS_P2;PMS_P1;PMS_P2;Temp;Humidity;BMP_temperature;BMP_pressure;BME280_temperature;BME280_humidity;BME280_pressure;Samples;Min_cycle;Max_cycle;Signal;HPM_P1;HPM_P2
2021/11/05 00:01:02;;;;;;;5.53;2.95;;;8.90;99.90;;;;;;5056085;28;20231;-79
2021/11/05 00:03:30;;;;;;;4.38;2.50;;;8.80;99.90;;;;;;5055784;28;20207;-79
2021/11/05 00:05:57;;;;;;;5.90;3.30;;;8.80;99.90;;;;;;5056087;28;20203;-78
2021/11/05 00:08:25;;;;;;;5.23;3.03;;;8.80;99.90;;;;;;5055385;28;20460;-78
2021/11/05 00:10:52;;;;;;;4.88;3.17;;;8.60;99.90;;;;;;5055600;28;20553;-78
2021/11/05 00:13:19;;;;;;;5.05;3.45;;;9.00;99.90;;;;;;5057181;28;20300;-80
2021/11/05 00:15:46;;;;;;;4.47;2.90;;;9.00;99.90;;;;;;5057113;28;20207;-78
2021/11/05 00:18:13;;;;;;;5.32;3.40;;;9.00;99.90;;;;;;5055655;28;20457;-79
2021/11/05 00:20:41;;;;;;;5.20;3.10;;;8.90;99.90;;;;;;5056909;28;20232;-78
2021/11/05 00:23:09;;;;;;;5.87;3.43;;;9.00;99.90;;;;;;5056328;28;20696;-79
2021/11/05 00:25:36;;;;;;;5.57;3.53;;;9.00;99.90;;;;;;5055781;28;20436;-79
2021/11/05 00:28:03;;;;;;;5.32;3.45;;;9.00;99.90;;;;;;5056090;28;20863;-78
2021/11/05 00:30:30;;;;;;;4.63;3.13;;;9.00;99.90;;;;;;5055274;28;20319;-78
2021/11/05 00:32:57;;;;;;;8.65;3.50;;;9.00;99.90;;;;;;5056948;28;20448;-77
2021/11/05 00:35:24;;;;;;;4.63;3.50;;;9.00;99.90;;;;;;5062953;28;20208;-79
2021/11/05 00:37:52;;;;;;;5.37;3.30;;;9.00;99.90;;;;;;5063108;28;20236;-79
2021/11/05 00:40:20;;;;;;;5.85;3.33;;;9.00;99.90;;;;;;5060638;28;20477;-79
2021/11/05 00:42:47;;;;;;;4.90;3.10;;;9.00;99.90;;;;;;5055341;28;20679;-79
2021/11/05 00:45:14;;;;;;;6.00;3.30;;;9.00;99.90;;;;;;5059046;28;20231;-78
2021/11/05 00:47:41;;;;;;;6.03;2.95;;;9.00;99.90;;;;;;5055726;28;20455;-78
2021/11/05 00:50:09;;;;;;;6.30;3.50;;;9.00;99.90;;;;;;5057704;28;20211;-77
2021/11/05 00:52:36;;;;;;;5.87;3.37;;;9.00;99.90;;;;;;5066923;28;20498;-78
2021/11/05 00:55:05;;;;;;;5.75;3.45;;;9.00;99.90;;;;;;5064394;28;20462;-78
2021/11/05 00:57:32;;;;;;;5.40;3.10;;;8.90;99.90;;;;;;5054866;28;20212;-78
2021/11/05 00:59:59;;;;;;;8.20;3.60;;;9.10;99.90;;;;;;5054648;28;20541;-78
2021/11/05 01:02:26;;;;;;;4.80;3.30;;;8.90;99.90;;;;;;5054631;28;20227;-78
2021/11/05 01:04:54;;;;;;;8.48;3.72;;;9.00;99.90;;;;;;5054485;28;20463;-78
2021/11/05 01:07:21;;;;;;;5.03;3.05;;;9.00;99.90;;;;;;5054328;28;20222;-78
2021/11/05 01:09:47;;;;;;;5.20;3.55;;;8.60;99.90;;;;;;5054951;28;20275;-79
2021/11/05 01:12:15;;;;;;;5.13;2.90;;;9.00;99.90;;;;;;5054828;28;20219;-79
2021/11/05 01:14:42;;;;;;;4.45;3.22;;;9.00;99.90;;;;;;5054849;28;20669;-79
2021/11/05 01:17:09;;;;;;;6.90;3.67;;;9.00;99.90;;;;;;5058816;28;20641;-78
2021/11/05 01:19:36;;;;;;;5.50;3.65;;;8.90;99.90;;;;;;5056618;28;20450;-78
2021/11/05 01:22:03;;;;;;;4.90;3.30;;;8.90;99.90;;;;;;5055168;28;20235;-79
2021/11/05 01:24:30;;;;;;;5.30;3.80;;;9.10;99.90;;;;;;5055098;28;20207;-78
2021/11/05 01:26:57;;;;;;;5.72;3.22;;;8.90;99.90;;;;;;5055415;28;20224;-79
2021/11/05 01:29:25;;;;;;;5.10;3.20;;;9.10;99.90;;;;;;5055942;28;20200;-79
2021/11/05 01:31:53;;;;;;;8.23;3.53;;;8.90;99.90;;;;;;5059703;28;20636;-78
2021/11/05 01:34:20;;;;;;;5.47;3.45;;;8.70;99.90;;;;;;5059095;28;20209;-79
2021/11/05 01:36:47;;;;;;;4.90;3.53;;;9.00;99.90;;;;;;5058941;28;20215;-79
2021/11/05 01:39:15;;;;;;;4.65;3.10;;;9.00;99.90;;;;;;5058865;28;20208;-79
2021/11/05 01:41:42;;;;;;;4.40;3.15;;;9.00;99.90;;;;;;5058338;28;20311;-78
2021/11/05 01:44:09;;;;;;;5.10;3.30;;;8.60;99.90;;;;;;5059258;28;20688;-78
2021/11/05 01:46:41;;;;;;;5.28;3.40;;;8.90;99.90;;;;;;5058938;28;20524;-78
2021/11/05 01:49:08;;;;;;;4.72;2.97;;;8.90;99.90;;;;;;5058648;28;20193;-78
2021/11/05 01:51:36;;;;;;;4.85;3.05;;;8.90;99.90;;;;;;5058378;28;20224;-79
2021/11/05 01:54:03;;;;;;;5.85;3.80;;;8.90;99.90;;;;;;5057792;28;20209;-78
2021/11/05 01:56:31;;;;;;;5.03;3.47;;;8.90;99.90;;;;;;5058283;28;20672;-78
2021/11/05 01:58:58;;;;;;;5.32;3.67;;;8.60;99.90;;;;;;5058588;28;20208;-78
2021/11/05 02:01:24;;;;;;;4.50;3.20;;;8.80;99.90;;;;;;5063076;28;20262;-79
2021/11/05 02:03:52;;;;;;;5.95;2.92;;;8.90;99.90;;;;;;5060093;28;20206;-81
2021/11/05 02:06:21;;;;;;;5.03;3.43;;;8.50;99.90;;;;;;5059025;28;20268;-79
2021/11/05 02:08:53;;;;;;;5.72;3.53;;;8.80;99.90;;;;;;5059263;28;20450;-79
2021/11/05 02:11:20;;;;;;;7.40;3.65;;;8.40;99.90;;;;;;5058908;28;20230;-79
2021/11/05 02:13:48;;;;;;;5.20;3.80;;;8.80;99.90;;;;;;5059228;28;20562;-79
2021/11/05 02:16:16;;;;;;;4.88;3.38;;;8.50;99.90;;;;;;5059053;28;20207;-79
2021/11/05 02:18:44;;;;;;;5.50;3.95;;;8.70;99.90;;;;;;5058276;28;20746;-79
2021/11/05 02:21:17;;;;;;;7.43;4.15;;;8.70;99.90;;;;;;5058518;28;20231;-79
2021/11/05 02:23:46;;;;;;;4.63;3.58;;;8.50;99.90;;;;;;5058295;28;20195;-79
2021/11/05 02:26:13;;;;;;;5.10;3.65;;;8.80;99.90;;;;;;5058183;28;20221;-79
2021/11/05 02:28:41;;;;;;;6.50;3.95;;;8.70;99.90;;;;;;5060167;28;20295;-80
2021/11/05 02:31:08;;;;;;;4.97;3.42;;;8.50;99.90;;;;;;5058165;28;20220;-79
2021/11/05 02:33:35;;;;;;;5.70;4.05;;;8.60;99.90;;;;;;5059404;28;20242;-78
2021/11/05 02:36:02;;;;;;;8.40;3.85;;;8.80;99.90;;;;;;5072538;28;20215;-79
2021/11/05 02:38:28;;;;;;;5.90;4.00;;;8.80;99.90;;;;;;5057604;28;20226;-79
2021/11/05 02:40:57;;;;;;;4.68;3.28;;;8.60;99.90;;;;;;5070012;28;20231;-79
2021/11/05 02:43:23;;;;;;;6.45;3.97;;;8.30;99.90;;;;;;5064171;28;20268;-78
2021/11/05 02:45:53;;;;;;;5.20;3.22;;;8.60;99.90;;;;;;5059489;28;20207;-79
2021/11/05 02:48:20;;;;;;;4.95;3.35;;;8.70;99.90;;;;;;5061009;28;20219;-79
2021/11/05 02:50:47;;;;;;;6.95;3.28;;;8.80;99.90;;;;;;5061235;28;20232;-79
2021/11/05 02:53:14;;;;;;;4.53;3.55;;;8.80;99.90;;;;;;5057867;28;20229;-79
2021/11/05 02:55:41;;;;;;;5.28;3.42;;;8.80;99.90;;;;;;5057826;28;20661;-79
2021/11/05 02:58:09;;;;;;;5.40;2.92;;;8.70;99.90;;;;;;5057987;28;20314;-79
2021/11/05 03:00:36;;;;;;;6.53;3.28;;;8.90;99.90;;;;;;5057551;28;20237;-79
2021/11/05 03:03:04;;;;;;;4.80;3.40;;;8.90;99.90;;;;;;5057541;28;20228;-78
2021/11/05 03:05:31;;;;;;;5.20;3.75;;;8.90;99.90;;;;;;5058588;28;20314;-79
2021/11/05 03:07:57;;;;;;;5.18;3.08;;;8.70;99.90;;;;;;5057256;28;20210;-79
2021/11/05 03:10:24;;;;;;;8.05;3.65;;;8.70;99.90;;;;;;5057463;28;20571;-79
2021/11/05 03:12:51;;;;;;;5.45;3.28;;;8.60;99.90;;;;;;5058329;28;20223;-79
2021/11/05 03:15:19;;;;;;;7.88;3.20;;;9.00;99.90;;;;;;5057000;28;20286;-79
2021/11/05 03:17:46;;;;;;;6.05;3.45;;;9.20;99.90;;;;;;5057658;28;20279;-79
2021/11/05 03:20:15;;;;;;;5.07;3.13;;;9.10;99.90;;;;;;5056988;28;20214;-78
2021/11/05 03:22:43;;;;;;;5.85;3.80;;;9.10;99.90;;;;;;5057071;28;20294;-79
2021/11/05 03:25:10;;;;;;;4.95;3.13;;;9.00;99.90;;;;;;5057405;28;20303;-79
2021/11/05 03:27:38;;;;;;;5.65;3.30;;;8.80;99.90;;;;;;5057634;28;20203;-79
2021/11/05 03:30:07;;;;;;;5.25;3.53;;;8.70;99.90;;;;;;5057082;28;20235;-79
2021/11/05 03:32:36;;;;;;;6.20;4.10;;;8.60;99.90;;;;;;5057279;28;20206;-79
2021/11/05 03:35:03;;;;;;;5.70;4.15;;;8.60;99.90;;;;;;5057105;28;20211;-79
2021/11/05 03:37:30;;;;;;;4.75;3.75;;;8.50;99.90;;;;;;5056718;28;20217;-79
2021/11/05 03:39:57;;;;;;;5.18;3.40;;;8.40;99.90;;;;;;5057331;28;20349;-79
2021/11/05 03:42:23;;;;;;;5.70;3.70;;;8.60;99.90;;;;;;5056914;28;20699;-79
2021/11/05 03:44:50;;;;;;;4.28;2.70;;;8.60;99.90;;;;;;5058059;28;20243;-79
2021/11/05 03:47:17;;;;;;;5.13;3.42;;;8.50;99.90;;;;;;5054257;28;20210;-78
2021/11/05 03:49:45;;;;;;;5.15;3.67;;;8.50;99.90;;;;;;5055266;28;20218;-78
2021/11/05 03:52:13;;;;;;;4.72;3.20;;;8.50;99.90;;;;;;5056620;28;20736;-79
2021/11/05 03:54:40;;;;;;;4.80;3.60;;;8.70;99.90;;;;;;5059626;28;20208;-78
2021/11/05 03:57:07;;;;;;;5.72;3.67;;;8.60;99.90;;;;;;5058929;28;20207;-78
2021/11/05 03:59:35;;;;;;;6.10;4.03;;;8.60;99.90;;;;;;5055766;28;20270;-78
2021/11/05 04:02:03;;;;;;;5.25;3.55;;;8.50;99.90;;;;;;5055656;28;20338;-78
2021/11/05 04:04:30;;;;;;;4.50;3.28;;;8.60;99.90;;;;;;5055598;28;20307;-78
2021/11/05 04:06:58;;;;;;;6.15;3.95;;;8.60;99.90;;;;;;5056704;28;20208;-77
2021/11/05 04:09:25;;;;;;;4.63;3.00;;;8.60;99.90;;;;;;5055872;28;20211;-79
2021/11/05 04:11:52;;;;;;;5.20;3.30;;;8.80;99.90;;;;;;5055859;28;20229;-79
2021/11/05 04:14:18;;;;;;;5.28;3.60;;;8.80;99.90;;;;;;5055152;28;20214;-78
2021/11/05 04:16:45;;;;;;;4.90;3.50;;;8.90;99.90;;;;;;5055739;28;20299;-78
2021/11/05 04:19:12;;;;;;;6.60;3.47;;;8.90;99.90;;;;;;5066949;28;20274;-78
2021/11/05 04:21:39;;;;;;;5.70;3.40;;;8.80;99.90;;;;;;5059714;28;20295;-78
2021/11/05 04:24:07;;;;;;;6.03;3.60;;;8.90;99.90;;;;;;5056860;28;20820;-78
2021/11/05 04:26:34;;;;;;;7.82;3.90;;;8.80;99.90;;;;;;5056435;28;20212;-78
2021/11/05 04:29:02;;;;;;;5.45;3.33;;;8.80;99.90;;;;;;5067759;28;20207;-78
2021/11/05 04:31:28;;;;;;;5.95;3.75;;;8.80;99.90;;;;;;5057215;28;20239;-79
2021/11/05 04:33:55;;;;;;;6.20;3.33;;;8.80;99.90;;;;;;5059419;28;20212;-79
2021/11/05 04:36:22;;;;;;;4.70;3.00;;;8.80;99.90;;;;;;5056566;28;20680;-79
2021/11/05 04:38:50;;;;;;;4.75;2.92;;;8.80;99.90;;;;;;5054799;28;20216;-78
2021/11/05 04:41:18;;;;;;;5.70;3.13;;;8.80;99.90;;;;;;5053645;28;20235;-77
2021/11/05 04:43:45;;;;;;;5.43;3.13;;;8.80;99.90;;;;;;5055246;28;20223;-78
2021/11/05 04:46:12;;;;;;;4.80;2.60;;;8.70;99.90;;;;;;5055681;28;20212;-78
2021/11/05 04:48:39;;;;;;;5.75;3.28;;;8.90;99.90;;;;;;5055151;28;20203;-79
2021/11/05 04:51:06;;;;;;;8.90;3.10;;;8.80;99.90;;;;;;5057048;28;20237;-79
2021/11/05 04:53:32;;;;;;;4.22;3.20;;;8.80;99.90;;;;;;5055964;28;20228;-79
2021/11/05 04:55:59;;;;;;;9.55;2.92;;;8.90;99.90;;;;;;5056107;28;20204;-79
2021/11/05 04:58:27;;;;;;;4.18;2.60;;;8.70;99.90;;;;;;5057850;28;20207;-79
2021/11/05 05:00:54;;;;;;;4.28;2.58;;;8.80;99.90;;;;;;5057900;28;20226;-79
2021/11/05 05:03:21;;;;;;;6.00;3.45;;;8.80;99.90;;;;;;5062995;28;20676;-79
2021/11/05 05:05:48;;;;;;;4.50;2.60;;;8.80;99.90;;;;;;5063577;28;20642;-79
2021/11/05 05:08:15;;;;;;;5.68;2.92;;;8.90;99.90;;;;;;5060471;28;20212;-79
2021/11/05 05:10:42;;;;;;;4.97;3.05;;;8.90;99.90;;;;;;5059637;28;20662;-79
2021/11/05 05:13:09;;;;;;;3.95;2.60;;;8.80;99.90;;;;;;5061517;28;20200;-79
2021/11/05 05:15:37;;;;;;;4.27;2.60;;;8.80;99.90;;;;;;5062668;28;20209;-79
2021/11/05 05:18:04;;;;;;;4.00;2.28;;;8.90;99.90;;;;;;5060231;28;20531;-79
2021/11/05 05:20:31;;;;;;;3.78;1.98;;;8.90;99.90;;;;;;5060270;28;20601;-79
2021/11/05 05:22:58;;;;;;;3.70;2.30;;;8.90;99.90;;;;;;5057826;28;20228;-79
2021/11/05 05:25:25;;;;;;;3.45;2.20;;;8.80;99.90;;;;;;5057859;28;20208;-79
2021/11/05 05:27:52;;;;;;;3.88;2.40;;;8.80;99.90;;;;;;5061922;28;20664;-79
2021/11/05 05:30:20;;;;;;;3.97;2.50;;;8.80;99.90;;;;;;5060405;28;20680;-79
2021/11/05 05:32:50;;;;;;;4.07;2.63;;;8.80;99.90;;;;;;5061633;28;20218;-79
2021/11/05 05:35:17;;;;;;;4.25;2.30;;;8.70;99.90;;;;;;5057089;28;20215;-79
2021/11/05 05:37:44;;;;;;;4.53;2.60;;;8.80;99.90;;;;;;5057095;28;20219;-79
2021/11/05 05:40:12;;;;;;;3.80;2.27;;;8.70;99.90;;;;;;5056292;28;20222;-79
2021/11/05 05:42:40;;;;;;;5.03;2.75;;;8.50;99.90;;;;;;5081469;22;20532;-82
2021/11/05 05:45:08;;;;;;;4.43;2.43;;;8.80;99.90;;;;;;5061025;28;20275;-82
2021/11/05 05:47:38;;;;;;;3.95;2.53;;;8.80;99.90;;;;;;5059575;28;20442;-81
2021/11/05 05:50:08;;;;;;;4.30;2.60;;;8.90;99.90;;;;;;5058089;28;20204;-82
2021/11/05 05:52:35;;;;;;;4.87;2.57;;;8.90;99.90;;;;;;5057400;28;20223;-82
2021/11/05 05:55:02;;;;;;;4.43;2.25;;;9.00;99.90;;;;;;5057814;28;20449;-82
2021/11/05 05:57:29;;;;;;;6.05;3.83;;;9.00;99.90;;;;;;5069156;28;20283;-81
2021/11/05 05:59:55;;;;;;;4.15;2.85;;;9.00;99.90;;;;;;5059113;28;20298;-82
2021/11/05 06:02:22;;;;;;;4.43;2.90;;;9.00;99.90;;;;;;5057574;28;20327;-83
2021/11/05 06:04:49;;;;;;;4.53;3.20;;;8.60;99.90;;;;;;5056836;28;20538;-81
2021/11/05 06:07:17;;;;;;;4.85;3.00;;;8.90;99.90;;;;;;5057520;28;20256;-82
2021/11/05 06:09:44;;;;;;;4.35;2.75;;;8.70;99.90;;;;;;5058387;28;20234;-82
2021/11/05 06:12:11;;;;;;;4.95;3.10;;;9.00;99.90;;;;;;5055773;28;20234;-79
2021/11/05 06:14:38;;;;;;;4.30;2.95;;;9.00;99.90;;;;;;5054189;28;20219;-78
2021/11/05 06:17:05;;;;;;;3.97;2.50;;;8.90;99.90;;;;;;5058202;28;20211;-79
2021/11/05 06:19:33;;;;;;;4.50;2.93;;;8.90;99.90;;;;;;5057779;28;20212;-79
2021/11/05 06:22:00;;;;;;;5.63;3.92;;;8.90;99.90;;;;;;5063696;28;20451;-78
2021/11/05 06:24:32;;;;;;;4.95;3.50;;;8.60;99.90;;;;;;5059457;28;20238;-80
2021/11/05 06:26:58;;;;;;;6.78;3.28;;;8.90;99.90;;;;;;5057785;28;20200;-79
2021/11/05 06:29:25;;;;;;;4.95;3.42;;;8.90;99.90;;;;;;5057194;28;20307;-79
2021/11/05 06:31:52;;;;;;;4.80;3.08;;;9.00;99.90;;;;;;5057483;28;20295;-79
2021/11/05 06:34:19;;;;;;;5.57;3.30;;;8.60;99.90;;;;;;5057386;28;20224;-80
2021/11/05 06:36:46;;;;;;;7.40;3.60;;;8.90;99.90;;;;;;5057928;28;20204;-79
2021/11/05 06:39:13;;;;;;;4.50;3.08;;;8.40;99.90;;;;;;5057561;28;20307;-79
2021/11/05 06:41:41;;;;;;;6.18;3.75;;;8.90;99.90;;;;;;5057891;28;20684;-80
2021/11/05 06:44:08;;;;;;;5.87;4.57;;;8.90;99.90;;;;;;5056927;28;20233;-79
2021/11/05 06:46:35;;;;;;;5.50;3.50;;;8.90;99.90;;;;;;5058125;28;20508;-79
2021/11/05 06:49:02;;;;;;;4.28;3.15;;;9.00;99.90;;;;;;5057358;28;20231;-79
2021/11/05 06:51:29;;;;;;;4.75;3.80;;;9.00;99.90;;;;;;5059147;28;20577;-82
2021/11/05 06:53:56;;;;;;;4.95;3.30;;;8.80;99.90;;;;;;5062671;28;20225;-83
2021/11/05 06:56:24;;;;;;;5.13;3.63;;;9.10;99.90;;;;;;5061924;28;20206;-83
2021/11/05 06:58:56;;;;;;;7.80;3.77;;;9.10;99.90;;;;;;5063077;28;20270;-83
2021/11/05 07:01:23;;;;;;;5.97;3.93;;;9.00;99.90;;;;;;5068575;28;20541;-83
2021/11/05 07:03:51;;;;;;;7.43;4.30;;;9.00;99.90;;;;;;5062936;28;20494;-85
2021/11/05 07:06:18;;;;;;;5.82;3.80;;;8.60;99.90;;;;;;5061828;28;20549;-86
2021/11/05 07:08:45;;;;;;;6.05;4.20;;;8.90;99.90;;;;;;5061513;28;20248;-83
2021/11/05 07:11:12;;;;;;;8.60;4.25;;;8.50;99.90;;;;;;5060735;28;20215;-83
2021/11/05 07:13:39;;;;;;;5.97;3.30;;;8.70;99.90;;;;;;5059716;28;20279;-85
2021/11/05 07:16:07;;;;;;;6.73;3.63;;;8.70;99.90;;;;;;5067905;28;20517;-83
2021/11/05 07:18:36;;;;;;;10.43;4.03;;;9.10;99.90;;;;;;5061334;28;20451;-85
2021/11/05 07:21:04;;;;;;;6.47;3.65;;;9.30;99.90;;;;;;5060379;28;20421;-84
2021/11/05 07:23:32;;;;;;;5.70;4.00;;;9.20;99.90;;;;;;5062449;28;20304;-81
2021/11/05 07:26:00;;;;;;;5.80;3.65;;;9.20;99.90;;;;;;5063227;28;20670;-82
2021/11/05 07:28:27;;;;;;;4.83;3.20;;;9.30;99.90;;;;;;5070647;28;20570;-83
2021/11/05 07:30:54;;;;;;;5.90;3.35;;;9.20;99.90;;;;;;5060153;28;20451;-80
2021/11/05 07:33:22;;;;;;;4.95;3.38;;;9.30;99.90;;;;;;5060335;28;20228;-82
2021/11/05 07:35:49;;;;;;;4.90;3.70;;;9.30;99.90;;;;;;5060105;28;20575;-83
2021/11/05 07:38:16;;;;;;;6.13;3.50;;;9.30;99.90;;;;;;5061891;28;20519;-80
2021/11/05 07:40:43;;;;;;;5.82;3.60;;;9.40;99.90;;;;;;5072310;28;20567;-80
2021/11/05 07:43:10;;;;;;;6.38;4.00;;;9.40;99.90;;;;;;5064887;28;20252;-79
2021/11/05 07:45:36;;;;;;;6.07;3.72;;;9.40;99.90;;;;;;5065996;28;20296;-82
2021/11/05 07:48:03;;;;;;;6.37;4.00;;;9.50;99.90;;;;;;5060134;28;20260;-81
2021/11/05 07:50:33;;;;;;;5.80;3.75;;;9.50;99.90;;;;;;5060030;28;20458;-81
2021/11/05 07:53:01;;;;;;;5.35;3.90;;;9.40;99.90;;;;;;5067204;28;20255;-80
2021/11/05 07:55:29;;;;;;;8.53;4.57;;;9.40;99.90;;;;;;5066361;28;20216;-81
2021/11/05 07:57:56;;;;;;;7.83;4.00;;;9.40;99.90;;;;;;5059240;28;20938;-81
2021/11/05 08:00:23;;;;;;;5.70;3.60;;;9.50;99.90;;;;;;5058287;28;20455;-81
2021/11/05 08:02:51;;;;;;;7.50;4.50;;;9.50;99.90;;;;;;5058090;28;20323;-82
2021/11/05 08:05:17;;;;;;;7.13;3.10;;;9.50;99.90;;;;;;5059828;28;20476;-82
2021/11/05 08:07:46;;;;;;;5.80;3.47;;;9.70;99.90;;;;;;5061304;28;20228;-82
2021/11/05 08:10:19;;;;;;;7.93;4.10;;;9.90;99.90;;;;;;5063310;28;20449;-81
2021/11/05 08:12:46;;;;;;;5.18;3.63;;;9.60;99.90;;;;;;5063485;28;20471;-82
2021/11/05 08:15:13;;;;;;;5.70;3.35;;;9.70;99.90;;;;;;5062291;28;20212;-83
2021/11/05 08:17:40;;;;;;;7.30;3.88;;;9.90;99.90;;;;;;5059111;28;20218;-81
2021/11/05 08:20:08;;;;;;;5.67;3.63;;;10.00;99.90;;;;;;5067414;28;20208;-81
2021/11/05 08:22:34;;;;;;;8.83;3.40;;;10.00;99.90;;;;;;5061133;28;20465;-82
2021/11/05 08:25:03;;;;;;;6.65;2.95;;;10.00;99.90;;;;;;5064329;28;20542;-81
2021/11/05 08:27:30;;;;;;;4.90;2.47;;;9.90;99.90;;;;;;5063271;28;20624;-81
2021/11/05 08:29:57;;;;;;;3.90;1.98;;;9.70;99.90;;;;;;5064994;28;20287;-81
2021/11/05 08:32:24;;;;;;;4.10;2.30;;;10.00;99.90;;;;;;5063402;28;20258;-81
2021/11/05 08:34:51;;;;;;;3.80;1.90;;;10.00;99.90;;;;;;5064923;28;20836;-82
2021/11/05 08:37:17;;;;;;;4.45;2.50;;;10.00;99.90;;;;;;5072724;28;20213;-81
2021/11/05 08:39:44;;;;;;;6.30;3.70;;;10.10;99.90;;;;;;5059000;28;20189;-82
2021/11/05 08:42:12;;;;;;;5.03;2.17;;;9.90;99.90;;;;;;5062982;28;20558;-81
2021/11/05 08:44:39;;;;;;;6.47;2.40;;;9.90;99.90;;;;;;5061618;28;20491;-81
2021/11/05 08:47:06;;;;;;;3.77;2.10;;;9.90;99.90;;;;;;5061110;28;20530;-82
2021/11/05 08:49:33;;;;;;;4.37;2.40;;;10.00;99.90;;;;;;5061977;28;20447;-82
2021/11/05 08:52:00;;;;;;;4.40;2.40;;;9.80;99.90;;;;;;5066088;28;20537;-82
2021/11/05 08:54:27;;;;;;;5.00;2.20;;;9.80;99.90;;;;;;5066868;28;20539;-82
2021/11/05 08:56:54;;;;;;;4.70;2.80;;;9.80;99.90;;;;;;5072749;28;20913;-81
2021/11/05 08:59:24;;;;;;;4.10;2.10;;;9.80;99.90;;;;;;5068613;28;20467;-82
2021/11/05 09:01:51;;;;;;;3.40;1.70;;;9.90;99.90;;;;;;5064041;28;20470;-81
2021/11/05 09:04:18;;;;;;;4.67;2.87;;;10.10;99.90;;;;;;5061907;28;20466;-80
2021/11/05 09:06:47;;;;;;;3.37;1.90;;;10.20;99.90;;;;;;5057638;28;20449;-79
2021/11/05 09:09:15;;;;;;;4.47;2.33;;;10.30;99.90;;;;;;5061021;28;20479;-80
2021/11/05 09:11:42;;;;;;;3.20;1.90;;;10.40;99.90;;;;;;5060245;28;20456;-79
2021/11/05 09:14:09;;;;;;;5.73;2.10;;;10.20;99.90;;;;;;5066129;28;20471;-79
2021/11/05 09:16:37;;;;;;;4.03;2.20;;;10.30;99.90;;;;;;5061905;28;20871;-80
2021/11/05 09:19:04;;;;;;;3.80;2.27;;;10.50;99.90;;;;;;5059093;28;20434;-80
2021/11/05 09:21:32;;;;;;;3.33;1.50;;;10.40;99.90;;;;;;5063931;28;20567;-80
2021/11/05 09:23:59;;;;;;;4.33;1.97;;;10.50;99.90;;;;;;5064749;28;20965;-80
2021/11/05 09:26:27;;;;;;;4.50;2.10;;;10.60;99.90;;;;;;5064481;28;20446;-80
2021/11/05 09:28:53;;;;;;;3.83;1.80;;;10.40;99.90;;;;;;5066004;28;20467;-81
2021/11/05 09:31:21;;;;;;;3.70;1.90;;;10.30;99.90;;;;;;5072626;28;20462;-81
2021/11/05 09:33:50;;;;;;;3.73;2.00;;;10.40;99.90;;;;;;5073379;28;20463;-81
2021/11/05 09:36:17;;;;;;;5.53;2.30;;;10.30;99.90;;;;;;5067485;28;20466;-83
2021/11/05 09:38:44;;;;;;;4.47;1.60;;;10.40;99.90;;;;;;5059779;28;20515;-82
2021/11/05 09:41:11;;;;;;;7.50;2.17;;;10.50;99.90;;;;;;5059989;28;20803;-81
2021/11/05 09:43:40;;;;;;;4.70;2.07;;;10.70;99.90;;;;;;5059022;28;20499;-81
2021/11/05 09:46:08;;;;;;;6.53;3.70;;;10.40;99.90;;;;;;5060467;28;20470;-81
2021/11/05 09:48:37;;;;;;;6.33;2.30;;;10.50;99.90;;;;;;5060103;28;20902;-82
2021/11/05 09:51:06;;;;;;;4.20;1.80;;;10.60;99.90;;;;;;5061714;28;20434;-83
2021/11/05 09:53:36;;;;;;;3.67;1.90;;;10.80;99.90;;;;;;5064345;28;20562;-81
2021/11/05 09:56:04;;;;;;;4.23;2.20;;;10.60;99.90;;;;;;5064336;28;20456;-81
2021/11/05 09:58:32;;;;;;;3.40;1.80;;;10.30;99.90;;;;;;5064113;28;20489;-82
2021/11/05 10:00:59;;;;;;;4.17;2.07;;;10.30;99.90;;;;;;5072448;28;20519;-81
2021/11/05 10:03:27;;;;;;;5.40;2.20;;;10.50;99.90;;;;;;5063246;28;20491;-81
2021/11/05 10:05:54;;;;;;;4.70;2.07;;;10.50;99.90;;;;;;5062945;28;20455;-82
2021/11/05 10:08:31;;;;;;;4.07;2.30;;;10.30;99.90;;;;;;5063468;28;20432;-83
2021/11/05 10:10:59;;;;;;;4.13;2.60;;;10.30;99.90;;;;;;5063117;28;20959;-81
2021/11/05 10:13:26;;;;;;;5.23;3.00;;;10.50;99.90;;;;;;5065960;28;20491;-81
2021/11/05 10:15:56;;;;;;;6.13;3.13;;;10.40;99.90;;;;;;5066581;28;20450;-81
2021/11/05 10:18:26;;;;;;;4.63;3.00;;;10.80;99.90;;;;;;5062011;28;21017;-81
2021/11/05 10:21:09;;;;;;;5.10;2.50;;;11.00;99.90;;;;;;5063168;28;20521;-81
2021/11/05 10:23:39;;;;;;;5.10;2.87;;;10.80;99.90;;;;;;5062247;28;20515;-81
2021/11/05 10:26:07;;;;;;;5.70;2.97;;;10.70;99.90;;;;;;5070903;28;20457;-80
2021/11/05 10:28:39;;;;;;;7.20;2.60;;;10.60;99.90;;;;;;5065278;28;20518;-82
2021/11/05 10:31:08;;;;;;;6.10;3.93;;;10.80;99.90;;;;;;5063111;28;20446;-82
2021/11/05 10:33:39;;;;;;;4.37;2.63;;;10.90;99.90;;;;;;5062149;28;20520;-82
2021/11/05 10:36:08;;;;;;;9.00;3.40;;;11.20;99.90;;;;;;5062193;28;20451;-82
2021/11/05 10:38:39;;;;;;;5.03;3.53;;;11.10;99.90;;;;;;5063384;28;20969;-80
2021/11/05 10:41:10;;;;;;;4.67;3.30;;;11.00;99.90;;;;;;5064156;28;20512;-80
2021/11/05 10:43:40;;;;;;;6.17;3.60;;;10.90;99.90;;;;;;5061537;28;20515;-81
2021/11/05 10:46:09;;;;;;;4.63;3.07;;;10.90;99.90;;;;;;5067648;28;20416;-80
2021/11/05 10:48:39;;;;;;;5.50;4.00;;;11.10;99.90;;;;;;5065576;28;20443;-81
2021/11/05 10:51:08;;;;;;;6.83;3.70;;;11.20;99.90;;;;;;5064091;28;20429;-80
2021/11/05 10:53:39;;;;;;;4.90;3.63;;;11.20;99.90;;;;;;5061949;28;20535;-82
2021/11/05 10:56:07;;;;;;;4.23;3.00;;;11.20;99.90;;;;;;5062050;28;20522;-81
2021/11/05 10:58:36;;;;;;;5.40;3.40;;;10.90;99.90;;;;;;5063024;28;20446;-81
2021/11/05 11:01:05;;;;;;;4.93;3.43;;;10.80;99.90;;;;;;5062069;28;20456;-80
2021/11/05 11:03:35;;;;;;;6.33;3.30;;;11.00;99.90;;;;;;5060329;28;20563;-81
2021/11/05 11:06:08;;;;;;;6.53;3.70;;;11.10;99.90;;;;;;5061892;28;20547;-81
2021/11/05 11:08:36;;;;;;;6.63;3.50;;;11.00;99.90;;;;;;5062592;28;20511;-80
2021/11/05 11:11:20;;;;;;;9.70;4.30;;;10.90;99.90;;;;;;5061918;28;20959;-81
2021/11/05 11:13:48;;;;;;;7.00;4.60;;;10.90;99.90;;;;;;5061812;28;20463;-83
2021/11/05 11:16:22;;;;;;;5.60;4.23;;;10.80;99.90;;;;;;5062688;28;20468;-80
2021/11/05 11:18:52;;;;;;;7.80;4.43;;;10.70;99.90;;;;;;5060040;28;20856;-83
2021/11/05 11:21:21;;;;;;;7.60;5.33;;;10.80;99.90;;;;;;5062642;28;20531;-85
2021/11/05 11:23:48;;;;;;;7.57;5.00;;;10.70;99.90;;;;;;5061964;28;20460;-83
2021/11/05 11:26:16;;;;;;;8.03;6.17;;;10.70;99.90;;;;;;5063415;28;20475;-83
2021/11/05 11:28:44;;;;;;;8.13;5.23;;;10.70;99.90;;;;;;5069284;28;20463;-79
2021/11/05 11:31:12;;;;;;;7.33;4.43;;;10.90;99.90;;;;;;5065303;28;20464;-82
2021/11/05 11:33:40;;;;;;;7.87;5.57;;;10.90;99.90;;;;;;5061014;28;20434;-82
2021/11/05 11:36:08;;;;;;;10.90;5.00;;;10.90;99.90;;;;;;5073252;28;20435;-82
2021/11/05 11:38:35;;;;;;;7.33;4.70;;;10.80;99.90;;;;;;5072793;28;20531;-82
2021/11/05 11:41:03;;;;;;;7.33;4.87;;;10.80;99.90;;;;;;5072226;28;20530;-82
2021/11/05 11:43:32;;;;;;;7.27;5.20;;;11.10;99.90;;;;;;5064594;28;20470;-82
2021/11/05 11:46:01;;;;;;;7.40;5.20;;;11.20;99.90;;;;;;5062723;28;20491;-83
2021/11/05 11:48:52;;;;;;;9.30;4.83;;;11.20;99.90;;;;;;5061789;28;20446;-83
2021/11/05 11:51:27;;;;;;;6.47;4.37;;;11.40;99.90;;;;;;5062134;28;20455;-82
2021/11/05 11:53:56;;;;;;;6.27;4.00;;;11.40;99.90;;;;;;5070613;28;20535;-82
2021/11/05 11:56:34;;;;;;;8.43;3.93;;;11.40;99.90;;;;;;5069553;28;20467;-82
2021/11/05 11:59:04;;;;;;;7.80;4.33;;;11.20;99.90;;;;;;5061567;28;20438;-82
2021/11/05 12:01:35;;;;;;;6.93;4.40;;;11.10;99.90;;;;;;5061579;28;20463;-83
2021/11/05 12:04:04;;;;;;;6.13;4.60;;;11.10;99.90;;;;;;5061571;28;20477;-83
2021/11/05 12:06:59;;;;;;;6.60;4.43;;;11.10;99.90;;;;;;5066616;28;20460;-82
2021/11/05 12:09:27;;;;;;;5.17;3.63;;;11.30;99.90;;;;;;5068043;28;20468;-81
2021/11/05 12:12:31;;;;;;;5.90;4.00;;;11.20;99.90;;;;;;5060253;28;20531;-81
2021/11/05 12:15:13;;;;;;;6.37;4.30;;;11.10;99.90;;;;;;5060100;28;20421;-81
2021/11/05 12:18:08;;;;;;;6.87;4.40;;;10.90;99.90;;;;;;5060310;28;20436;-81
2021/11/05 12:20:41;;;;;;;7.67;5.53;;;11.20;99.90;;;;;;5060329;28;20851;-82
2021/11/05 12:23:21;;;;;;;5.13;3.73;;;11.40;99.90;;;;;;5060062;28;20482;-82
2021/11/05 12:25:56;;;;;;;11.57;8.73;;;11.40;99.90;;;;;;5059792;28;20484;-82
2021/11/05 12:28:26;;;;;;;8.80;5.20;;;11.40;99.90;;;;;;5059650;28;20410;-82
2021/11/05 12:31:16;;;;;;;7.17;4.77;;;11.40;99.90;;;;;;5058329;28;20446;-82
2021/11/05 12:33:43;;;;;;;6.10;3.80;;;11.60;99.90;;;;;;5059158;28;20530;-81
2021/11/05 12:36:10;;;;;;;8.87;6.00;;;11.70;99.90;;;;;;5058970;28;20526;-80
2021/11/05 12:39:02;;;;;;;7.63;5.70;;;11.60;99.90;;;;;;5058942;28;20434;-80
2021/11/05 12:41:29;;;;;;;6.63;4.87;;;11.60;99.90;;;;;;5059305;28;20970;-83
2021/11/05 12:44:10;;;;;;;7.70;6.00;;;11.70;99.90;;;;;;5059202;28;20480;-82
2021/11/05 12:46:45;;;;;;;6.67;4.90;;;11.80;99.90;;;;;;5064435;28;20437;-82
2021/11/05 12:49:16;;;;;;;5.20;3.87;;;11.50;99.90;;;;;;5066881;28;20450;-81
2021/11/05 12:51:46;;;;;;;7.43;5.37;;;11.70;99.90;;;;;;5060015;28;20415;-81
2021/11/05 12:54:26;;;;;;;8.20;5.97;;;11.60;99.90;;;;;;5058368;28;20476;-81
2021/11/05 12:56:56;;;;;;;5.67;4.30;;;11.60;99.90;;;;;;5060943;28;20444;-81
2021/11/05 12:59:25;;;;;;;6.23;4.47;;;11.80;99.90;;;;;;5061072;28;20463;-81